createdAt,value
2022-08-17T00:01:51.926Z,20.64
2022-08-17T00:04:24.515Z,20.68
2022-08-17T00:06:53.778Z,20.68
2022-08-17T00:09:23.402Z,20.68
2022-08-17T00:12:41.414Z,20.68
2022-08-17T00:14:42.565Z,20.72
2022-08-17T00:17:11.851Z,20.69
2022-08-17T00:19:42.587Z,20.61
2022-08-17T00:22:32.215Z,20.60
2022-08-17T00:25:01.349Z,20.56
2022-08-17T00:27:30.850Z,20.54
2022-08-17T00:30:00.205Z,20.55
2022-08-17T00:33:15.124Z,20.54
2022-08-17T00:35:23.712Z,20.56
2022-08-17T00:37:53.451Z,20.55
2022-08-17T00:40:24.798Z,20.50
2022-08-17T00:42:54.480Z,20.53
2022-08-17T00:45:24.043Z,20.50
2022-08-17T00:47:53.335Z,20.49
2022-08-17T00:50:24.179Z,20.47
2022-08-17T00:52:58.770Z,20.49
2022-08-17T00:55:28.764Z,20.50
2022-08-17T00:58:01.223Z,20.53
2022-08-17T01:00:35.673Z,20.55
2022-08-17T01:03:11.897Z,20.55
2022-08-17T01:05:43.968Z,20.53
2022-08-17T01:08:19.666Z,20.49
2022-08-17T01:10:58.159Z,20.49
2022-08-17T01:13:40.642Z,20.44
2022-08-17T01:16:17.444Z,20.46
2022-08-17T01:18:49.300Z,20.45
2022-08-17T01:21:28.710Z,20.41
2022-08-17T01:24:00.588Z,20.31
2022-08-17T01:26:32.881Z,20.27
2022-08-17T01:29:02.714Z,20.27
2022-08-17T01:31:37.145Z,20.29
2022-08-17T01:34:09.913Z,20.32
2022-08-17T01:36:41.071Z,20.31
2022-08-17T01:39:19.164Z,20.29
2022-08-17T01:41:49.744Z,20.29
2022-08-17T01:44:19.411Z,20.32
2022-08-17T01:46:48.786Z,20.30
2022-08-17T01:49:18.064Z,20.31
2022-08-17T01:51:47.846Z,20.33
2022-08-17T01:54:20.935Z,20.35
2022-08-17T01:56:53.073Z,20.35
2022-08-17T01:59:22.704Z,20.35
2022-08-17T02:01:52.757Z,20.35
2022-08-17T02:04:22.300Z,20.33
2022-08-17T02:06:54.455Z,20.33
2022-08-17T02:09:29.549Z,20.31
2022-08-17T02:12:37.596Z,20.29
2022-08-17T02:14:53.500Z,20.25
2022-08-17T02:17:22.816Z,20.21
2022-08-17T02:19:52.110Z,20.20
2022-08-17T02:22:21.889Z,20.24
2022-08-17T02:25:00.521Z,20.25
2022-08-17T02:27:31.847Z,20.26
2022-08-17T02:30:01.228Z,20.25
2022-08-17T02:32:30.481Z,20.23
2022-08-17T02:35:00.926Z,20.20
2022-08-17T02:37:30.973Z,20.21
2022-08-17T02:40:02.045Z,20.22
2022-08-17T02:42:33.927Z,20.18
2022-08-17T02:45:03.527Z,20.14
2022-08-17T02:47:33.072Z,20.09
2022-08-17T02:50:02.490Z,20.05
2022-08-17T02:52:42.717Z,20.03
2022-08-17T02:55:17.042Z,20.02
2022-08-17T02:57:47.153Z,19.99
2022-08-17T03:00:21.238Z,19.98
2022-08-17T03:02:51.883Z,19.99
2022-08-17T03:05:23.333Z,19.96
2022-08-17T03:07:54.860Z,19.92
2022-08-17T03:10:26.631Z,19.87
2022-08-17T03:12:56.848Z,19.88
2022-08-17T03:15:27.012Z,19.85
2022-08-17T03:17:57.294Z,19.82
2022-08-17T03:20:27.177Z,19.80
2022-08-17T03:23:02.747Z,19.78
2022-08-17T03:25:35.940Z,19.77
2022-08-17T03:28:07.238Z,19.76
2022-08-17T03:30:37.493Z,19.76
2022-08-17T03:33:11.251Z,19.80
2022-08-17T03:35:42.690Z,19.82
2022-08-17T03:38:15.171Z,19.85
2022-08-17T03:40:58.058Z,19.83
2022-08-17T03:43:30.761Z,19.82
2022-08-17T03:46:34.398Z,19.80
2022-08-17T03:49:23.508Z,19.80
2022-08-17T03:52:10.610Z,19.80
2022-08-17T03:54:57.501Z,19.81
2022-08-17T03:57:29.160Z,19.79
2022-08-17T03:59:58.795Z,19.80
2022-08-17T04:02:31.470Z,19.82
2022-08-17T04:05:01.653Z,19.84
2022-08-17T04:07:32.777Z,19.86
2022-08-17T04:10:02.491Z,19.85
2022-08-17T04:12:46.768Z,19.86
2022-08-17T04:15:18.246Z,19.86
2022-08-17T04:17:48.265Z,19.84
2022-08-17T04:20:20.356Z,19.85
2022-08-17T04:23:02.143Z,19.89
2022-08-17T04:25:34.251Z,19.88
2022-08-17T04:28:07.683Z,19.90
2022-08-17T04:30:46.888Z,19.92
2022-08-17T04:33:18.468Z,19.98
2022-08-17T04:35:50.431Z,20.00
2022-08-17T04:38:21.927Z,20.04
2022-08-17T04:41:09.130Z,20.04
2022-08-17T04:43:42.186Z,20.07
2022-08-17T04:46:14.579Z,20.10
2022-08-17T04:48:46.243Z,20.11
2022-08-17T04:51:18.166Z,20.16
2022-08-17T04:53:54.395Z,20.18
2022-08-17T04:56:25.911Z,20.23
2022-08-17T04:58:59.039Z,20.24
2022-08-17T05:01:31.211Z,20.28
2022-08-17T05:04:33.518Z,20.32
2022-08-17T05:06:55.738Z,20.34
2022-08-17T05:09:25.334Z,20.36
2022-08-17T05:11:55.265Z,20.39
2022-08-17T05:14:33.802Z,20.42
2022-08-17T05:17:07.363Z,20.45
2022-08-17T05:19:41.195Z,20.48
2022-08-17T05:22:10.545Z,20.52
2022-08-17T05:24:43.495Z,20.56
2022-08-17T05:27:23.534Z,20.59
2022-08-17T05:29:54.192Z,20.60
2022-08-17T05:32:37.921Z,20.61
2022-08-17T05:35:10.108Z,20.66
2022-08-17T05:37:39.701Z,20.69
2022-08-17T05:40:10.735Z,20.70
2022-08-17T05:42:40.304Z,20.71
2022-08-17T05:45:12.230Z,20.75
2022-08-17T05:47:42.578Z,20.77
2022-08-17T05:50:26.051Z,20.79
2022-08-17T05:53:04.423Z,20.84
2022-08-17T05:55:41.284Z,20.83
2022-08-17T05:58:21.453Z,20.83
2022-08-17T06:01:04.191Z,20.85
2022-08-17T06:03:45.627Z,20.85
2022-08-17T06:06:31.281Z,20.92
2022-08-17T06:09:12.943Z,20.94
2022-08-17T06:11:53.454Z,20.94
2022-08-17T06:14:51.177Z,20.97
2022-08-17T06:17:23.905Z,20.99
2022-08-17T06:19:59.719Z,21.03
2022-08-17T06:22:34.541Z,21.06
2022-08-17T06:25:10.185Z,21.10
2022-08-17T06:27:45.039Z,21.17
2022-08-17T06:30:17.368Z,21.20
2022-08-17T06:32:51.105Z,21.26
2022-08-17T06:35:32.041Z,21.30
2022-08-17T06:38:37.091Z,21.39
2022-08-17T06:41:17.042Z,21.45
2022-08-17T06:44:12.026Z,21.49
2022-08-17T06:47:09.031Z,21.57
2022-08-17T06:49:54.647Z,21.66
2022-08-17T06:52:46.860Z,21.75
2022-08-17T06:55:26.292Z,21.83
2022-08-17T06:58:01.424Z,21.92
2022-08-17T07:00:42.917Z,22.00
2022-08-17T07:03:21.990Z,22.08
2022-08-17T07:05:57.978Z,22.16
2022-08-17T07:08:35.052Z,22.25
2022-08-17T07:11:06.883Z,22.30
2022-08-17T07:13:51.396Z,22.37
2022-08-17T07:16:25.502Z,22.44
2022-08-17T07:18:57.292Z,22.52
2022-08-17T07:21:43.018Z,22.66
2022-08-17T07:24:26.365Z,22.79
2022-08-17T07:27:14.868Z,22.90
2022-08-17T07:29:49.483Z,22.96
2022-08-17T07:32:23.359Z,23.05
2022-08-17T07:35:15.356Z,23.13
2022-08-17T07:37:53.188Z,23.19
2022-08-17T07:40:30.866Z,23.25
2022-08-17T07:43:15.605Z,23.31
2022-08-17T07:46:21.403Z,23.41
2022-08-17T07:48:53.063Z,23.52
2022-08-17T07:51:26.590Z,23.61
2022-08-17T07:54:13.671Z,23.73
2022-08-17T07:56:47.965Z,23.82
2022-08-17T07:59:23.729Z,23.92
2022-08-17T08:02:31.896Z,24.01
2022-08-17T08:05:10.091Z,24.08
2022-08-17T08:07:45.166Z,24.18
2022-08-17T08:10:27.924Z,24.29
2022-08-17T08:13:14.647Z,24.36
2022-08-17T08:15:54.356Z,24.45
2022-08-17T08:18:38.748Z,24.55
2022-08-17T08:21:24.604Z,24.63
2022-08-17T08:24:00.593Z,24.71
2022-08-17T08:26:41.160Z,24.83
2022-08-17T08:29:22.536Z,24.94
2022-08-17T08:32:03.516Z,25.02
2022-08-17T08:34:53.348Z,25.09
2022-08-17T08:37:42.453Z,25.22
2022-08-17T08:40:26.997Z,25.30
2022-08-17T08:43:08.400Z,25.40
2022-08-17T08:45:47.174Z,25.43
2022-08-17T08:48:55.752Z,25.53
2022-08-17T08:51:27.969Z,25.63
2022-08-17T08:54:05.050Z,25.71
2022-08-17T08:56:59.177Z,25.80
2022-08-17T08:59:42.339Z,25.86
2022-08-17T09:02:25.206Z,25.94
2022-08-17T09:05:20.363Z,25.97
2022-08-17T09:08:02.010Z,26.00
2022-08-17T09:10:36.011Z,26.04
2022-08-17T09:13:16.936Z,26.10
2022-08-17T09:15:53.113Z,26.15
2022-08-17T09:19:02.653Z,26.20
2022-08-17T09:21:22.550Z,26.29
2022-08-17T09:23:59.972Z,26.36
2022-08-17T09:26:35.560Z,26.42
2022-08-17T09:29:10.040Z,26.50
2022-08-17T09:31:49.378Z,26.60
2022-08-17T09:34:29.625Z,26.64
2022-08-17T09:37:17.264Z,26.67
2022-08-17T09:39:55.970Z,26.73
2022-08-17T09:42:32.769Z,26.78
2022-08-17T09:45:15.919Z,26.86
2022-08-17T09:47:53.352Z,26.93
2022-08-17T09:51:03.388Z,26.94
2022-08-17T09:53:16.793Z,26.98
2022-08-17T09:56:15.855Z,27.04
2022-08-17T09:59:00.486Z,27.12
2022-08-17T10:01:39.884Z,27.23
2022-08-17T10:04:34.025Z,27.27
2022-08-17T10:07:11.629Z,27.32
2022-08-17T10:09:56.599Z,27.39
2022-08-17T10:12:35.321Z,27.45
2022-08-17T10:15:22.406Z,27.51
2022-08-17T10:18:30.509Z,27.56
2022-08-17T10:21:25.202Z,27.61
2022-08-17T10:24:19.081Z,27.66
2022-08-17T10:26:57.240Z,27.72
2022-08-17T10:29:48.802Z,27.78
2022-08-17T10:32:28.423Z,27.84
2022-08-17T10:35:20.865Z,27.90
2022-08-17T10:38:19.588Z,27.95
2022-08-17T10:40:59.916Z,27.99
2022-08-17T10:43:42.151Z,28.05
2022-08-17T10:46:33.687Z,28.11
2022-08-17T10:49:26.865Z,28.19
2022-08-17T10:51:59.974Z,28.23
2022-08-17T10:54:46.636Z,28.33
2022-08-17T10:57:47.160Z,28.37
2022-08-17T11:01:02.261Z,28.39
2022-08-17T11:03:32.965Z,28.42
2022-08-17T11:06:16.443Z,28.57
2022-08-17T11:09:11.679Z,28.80
2022-08-17T11:12:13.163Z,29.09
2022-08-17T11:15:00.573Z,29.38
2022-08-17T11:17:52.109Z,29.61
2022-08-17T11:20:55.783Z,29.73
2022-08-17T11:23:54.723Z,29.84
2022-08-17T11:26:29.704Z,29.87
2022-08-17T11:29:05.261Z,29.84
2022-08-17T11:31:40.454Z,29.82
2022-08-17T11:34:21.244Z,29.82
2022-08-17T11:37:33.066Z,29.79
2022-08-17T11:40:25.872Z,29.76
2022-08-17T11:43:32.050Z,29.73
2022-08-17T11:46:16.894Z,29.72
2022-08-17T11:49:16.844Z,29.72
2022-08-17T11:52:10.180Z,29.74
2022-08-17T11:54:46.206Z,29.75
2022-08-17T11:57:54.553Z,29.76
2022-08-17T12:00:59.173Z,29.76
2022-08-17T12:06:41.325Z,29.80
2022-08-17T12:09:17.997Z,29.80
2022-08-17T12:12:11.413Z,29.80
2022-08-17T12:17:43.038Z,29.80
2022-08-17T12:20:21.497Z,29.83
2022-08-17T12:23:01.492Z,29.85
2022-08-17T12:25:38.659Z,29.82
2022-08-17T12:28:23.138Z,29.84
2022-08-17T12:30:54.765Z,29.81
2022-08-17T12:33:28.889Z,29.78
2022-08-17T12:36:02.845Z,29.76
2022-08-17T12:38:39.376Z,29.76
2022-08-17T12:41:29.228Z,29.77
2022-08-17T12:44:01.740Z,29.80
2022-08-17T12:46:34.879Z,29.82
2022-08-17T12:49:16.040Z,29.82
2022-08-17T12:51:47.981Z,29.80
2022-08-17T12:54:35.149Z,29.81
2022-08-17T12:57:12.630Z,29.77
2022-08-17T12:59:50.030Z,29.75
2022-08-17T13:02:42.672Z,29.76
2022-08-17T13:05:23.230Z,29.73
2022-08-17T13:07:53.202Z,29.68
2022-08-17T13:10:32.474Z,29.64
2022-08-17T13:13:05.936Z,29.61
2022-08-17T13:15:44.439Z,29.57
2022-08-17T13:18:29.273Z,29.53
2022-08-17T13:21:00.337Z,29.48
2022-08-17T13:23:31.421Z,29.49
2022-08-17T13:26:07.713Z,29.52
2022-08-17T13:28:38.898Z,29.45
2022-08-17T13:31:33.440Z,29.43
2022-08-17T13:34:19.287Z,29.41
2022-08-17T13:36:50.787Z,29.38
2022-08-17T13:39:24.284Z,29.37
2022-08-17T13:41:56.600Z,29.36
2022-08-17T13:44:33.057Z,29.39
2022-08-17T13:47:03.712Z,29.37
2022-08-17T13:49:41.889Z,29.39
2022-08-17T13:52:35.927Z,29.36
2022-08-17T13:55:17.157Z,29.33
2022-08-17T13:57:49.767Z,29.30
2022-08-17T14:00:37.921Z,29.24
2022-08-17T14:03:07.539Z,29.25
2022-08-17T14:05:38.023Z,29.21
2022-08-17T14:08:08.260Z,29.17
2022-08-17T14:10:37.659Z,29.16
2022-08-17T14:13:09.500Z,29.17
2022-08-17T14:15:53.988Z,29.13
2022-08-17T14:18:31.159Z,29.15
2022-08-17T14:21:17.417Z,29.12
2022-08-17T14:23:54.226Z,29.08
2022-08-17T14:26:24.535Z,29.04
2022-08-17T14:28:56.421Z,29.04
2022-08-17T14:31:27.524Z,28.97
2022-08-17T14:33:58.972Z,28.95
2022-08-17T14:36:29.086Z,28.93
2022-08-17T14:38:58.453Z,28.90
2022-08-17T14:41:27.830Z,28.88
2022-08-17T14:43:58.905Z,28.87
2022-08-17T14:46:28.856Z,28.84
2022-08-17T14:48:59.671Z,28.80
2022-08-17T14:51:31.316Z,28.79
2022-08-17T14:54:00.934Z,28.79
2022-08-17T14:56:31.789Z,28.75
2022-08-17T14:59:09.037Z,28.74
2022-08-17T15:01:38.423Z,28.71
2022-08-17T15:04:08.172Z,28.69
2022-08-17T15:06:38.995Z,28.64
2022-08-17T15:09:08.625Z,28.61
2022-08-17T15:11:39.586Z,28.60
2022-08-17T15:14:10.713Z,28.60
2022-08-17T15:16:40.610Z,28.60
2022-08-17T15:19:09.817Z,28.60
2022-08-17T15:21:39.946Z,28.59
2022-08-17T15:24:10.229Z,28.59
2022-08-17T15:26:39.557Z,28.59
2022-08-17T15:29:10.863Z,28.59
2022-08-17T15:31:40.437Z,28.61
2022-08-17T15:34:10.056Z,28.61
2022-08-17T15:36:41.405Z,28.63
2022-08-17T15:39:19.686Z,28.65
2022-08-17T15:41:58.760Z,28.68
2022-08-17T15:44:34.784Z,28.69
2022-08-17T15:47:04.655Z,28.71
2022-08-17T15:49:34.215Z,28.70
2022-08-17T15:52:15.942Z,28.71
2022-08-17T15:54:50.107Z,28.69
2022-08-17T15:57:20.371Z,28.72
2022-08-17T15:59:53.965Z,28.66
2022-08-17T16:03:13.970Z,28.62
2022-08-17T16:05:18.949Z,28.61
2022-08-17T16:07:49.666Z,28.58
2022-08-17T16:10:19.953Z,28.58
2022-08-17T16:12:50.668Z,28.54
2022-08-17T16:15:21.774Z,28.51
2022-08-17T16:17:51.469Z,28.48
2022-08-17T16:20:21.238Z,28.41
2022-08-17T16:22:51.944Z,28.39
2022-08-17T16:25:52.089Z,28.33
2022-08-17T16:28:15.661Z,28.26
2022-08-17T16:30:46.463Z,28.22
2022-08-17T16:33:18.815Z,28.14
2022-08-17T16:35:48.223Z,28.07
2022-08-17T16:38:17.432Z,27.99
2022-08-17T16:40:46.879Z,27.90
2022-08-17T16:43:16.663Z,27.79
2022-08-17T16:45:51.965Z,27.69
2022-08-17T16:48:21.495Z,27.57
2022-08-17T16:51:03.632Z,27.45
2022-08-17T16:53:33.973Z,27.35
2022-08-17T16:56:05.222Z,27.27
2022-08-17T16:58:34.510Z,27.17
2022-08-17T17:01:05.534Z,27.08
2022-08-17T17:03:35.850Z,26.98
2022-08-17T17:06:15.643Z,26.89
2022-08-17T17:08:51.677Z,26.80
2022-08-17T17:11:27.322Z,26.73
2022-08-17T17:14:01.629Z,26.63
2022-08-17T17:16:45.711Z,26.55
2022-08-17T17:19:27.893Z,26.45
2022-08-17T17:22:12.197Z,26.37
2022-08-17T17:24:50.276Z,26.31
2022-08-17T17:27:30.687Z,26.23
2022-08-17T17:30:09.820Z,26.17
2022-08-17T17:32:45.875Z,26.11
2022-08-17T17:35:21.679Z,26.04
2022-08-17T17:37:53.558Z,26.00
2022-08-17T17:40:26.663Z,25.94
2022-08-17T17:43:14.251Z,25.88
2022-08-17T17:45:58.848Z,25.82
2022-08-17T17:48:49.496Z,25.76
2022-08-17T17:51:45.573Z,25.70
2022-08-17T17:54:32.400Z,25.64
2022-08-17T17:57:11.585Z,25.56
2022-08-17T17:59:51.323Z,25.52
2022-08-17T18:02:51.948Z,25.44
2022-08-17T18:05:58.558Z,25.34
2022-08-17T18:08:49.226Z,25.30
2022-08-17T18:11:35.207Z,25.24
2022-08-17T18:14:17.351Z,25.17
2022-08-17T18:16:54.749Z,25.11
2022-08-17T18:19:26.713Z,25.07
2022-08-17T18:22:07.588Z,25.04
2022-08-17T18:24:44.779Z,25.00
2022-08-17T18:27:29.834Z,24.93
2022-08-17T18:30:05.870Z,24.87
2022-08-17T18:32:40.815Z,24.86
2022-08-17T18:35:35.083Z,24.77
2022-08-17T18:38:24.127Z,24.72
2022-08-17T18:41:01.914Z,24.68
2022-08-17T18:43:44.147Z,24.63
2022-08-17T18:46:33.133Z,24.58
2022-08-17T18:49:03.969Z,24.55
2022-08-17T18:51:42.210Z,24.50
2022-08-17T18:54:21.358Z,24.45
2022-08-17T18:56:54.897Z,24.42
2022-08-17T18:59:32.390Z,24.38
2022-08-17T19:02:24.219Z,24.36
2022-08-17T19:05:08.551Z,24.31
2022-08-17T19:07:40.699Z,24.30
2022-08-17T19:10:22.856Z,24.26
2022-08-17T19:13:00.899Z,24.21
2022-08-17T19:15:36.731Z,24.16
2022-08-17T19:18:15.691Z,24.12
2022-08-17T19:20:51.992Z,24.08
2022-08-17T19:23:28.865Z,24.06
2022-08-17T19:26:03.978Z,24.02
2022-08-17T19:28:53.447Z,23.99
2022-08-17T19:31:26.095Z,23.96
2022-08-17T19:33:57.372Z,23.94
2022-08-17T19:36:40.259Z,23.92
2022-08-17T19:39:19.170Z,23.88
2022-08-17T19:41:59.164Z,23.85
2022-08-17T19:44:49.652Z,23.80
2022-08-17T19:47:50.978Z,23.77
2022-08-17T19:50:22.402Z,23.73
2022-08-17T19:52:56.713Z,23.73
2022-08-17T19:55:32.987Z,23.70
2022-08-17T19:58:17.826Z,23.64
2022-08-17T20:00:52.515Z,23.68
2022-08-17T20:03:25.867Z,23.66
2022-08-17T20:06:12.617Z,23.62
2022-08-17T20:08:49.927Z,23.62
2022-08-17T20:11:25.313Z,23.59
2022-08-17T20:14:04.647Z,23.55
2022-08-17T20:16:35.281Z,23.55
2022-08-17T20:19:09.134Z,23.52
2022-08-17T20:21:44.386Z,23.52
2022-08-17T20:24:21.994Z,23.51
2022-08-17T20:26:58.574Z,23.49
2022-08-17T20:29:40.267Z,23.47
2022-08-17T20:32:26.805Z,23.43
2022-08-17T20:35:20.961Z,23.40
2022-08-17T20:37:59.884Z,23.37
2022-08-17T20:40:32.675Z,23.34
2022-08-17T20:43:40.083Z,23.32
2022-08-17T20:46:20.797Z,23.29
2022-08-17T20:48:53.869Z,23.27
2022-08-17T20:51:32.457Z,23.25
2022-08-17T20:54:24.398Z,23.23
2022-08-17T20:56:59.176Z,23.18
2022-08-17T21:00:14.762Z,23.12
2022-08-17T21:02:47.565Z,23.06
2022-08-17T21:05:40.468Z,23.05
2022-08-17T21:08:16.027Z,23.03
2022-08-17T21:10:47.735Z,23.02
2022-08-17T21:13:56.940Z,23.03
2022-08-17T21:16:41.386Z,23.04
2022-08-17T21:19:31.386Z,23.04
2022-08-17T21:22:15.270Z,23.04
2022-08-17T21:24:55.586Z,23.00
2022-08-17T21:27:37.811Z,23.00
2022-08-17T21:30:44.489Z,23.00
2022-08-17T21:33:28.608Z,22.99
2022-08-17T21:36:23.833Z,22.97
2022-08-17T21:39:03.870Z,22.95
2022-08-17T21:41:35.386Z,22.95
2022-08-17T21:44:12.249Z,22.90
2022-08-17T21:46:45.834Z,22.86
2022-08-17T21:49:18.301Z,22.84
2022-08-17T21:51:55.002Z,22.80
2022-08-17T21:54:32.034Z,22.77
2022-08-17T21:57:03.548Z,22.74
2022-08-17T21:59:36.729Z,22.70
2022-08-17T22:02:08.694Z,22.67
2022-08-17T22:04:40.314Z,22.65
2022-08-17T22:07:14.415Z,22.65
2022-08-17T22:09:47.404Z,22.63
2022-08-17T22:12:19.705Z,22.61
2022-08-17T22:15:00.413Z,22.53
2022-08-17T22:17:35.452Z,22.50
2022-08-17T22:20:10.547Z,22.44
2022-08-17T22:23:21.023Z,22.41
2022-08-17T22:26:01.517Z,22.37
2022-08-17T22:28:45.600Z,22.35
2022-08-17T22:31:17.354Z,22.36
2022-08-17T22:33:49.493Z,22.36
2022-08-17T22:36:29.059Z,22.34
2022-08-17T22:39:01.937Z,22.31
2022-08-17T22:41:44.090Z,22.31
2022-08-17T22:44:25.492Z,22.28
2022-08-17T22:47:06.725Z,22.29
2022-08-17T22:49:53.546Z,22.30
2022-08-17T22:52:32.905Z,22.30
2022-08-17T22:55:26.594Z,22.32
2022-08-17T22:58:13.361Z,22.30
2022-08-17T23:00:45.191Z,22.30
2022-08-17T23:03:19.082Z,22.28
2022-08-17T23:06:03.428Z,22.27
2022-08-17T23:08:35.757Z,22.26
2022-08-17T23:11:08.003Z,22.26
2022-08-17T23:13:38.742Z,22.21
2022-08-17T23:16:08.152Z,22.21
2022-08-17T23:18:37.855Z,22.19
2022-08-17T23:21:07.787Z,22.16
2022-08-17T23:23:37.643Z,22.14
2022-08-17T23:26:10.446Z,22.14
2022-08-17T23:28:41.107Z,22.16
2022-08-17T23:31:10.843Z,22.13
2022-08-17T23:33:40.989Z,22.12
2022-08-17T23:36:15.379Z,22.12
2022-08-17T23:38:46.604Z,22.12
2022-08-17T23:41:19.864Z,22.12
2022-08-17T23:43:52.248Z,22.12
2022-08-17T23:46:22.496Z,22.09
2022-08-17T23:48:54.241Z,22.10
2022-08-17T23:51:28.604Z,22.07
2022-08-17T23:54:12.634Z,22.08
2022-08-17T23:56:46.617Z,22.07
2022-08-17T23:59:17.571Z,22.06
